ADDS METAR Data INFO
IDs: Format: Raw Decoded Include TAF

Data at: 2224 UTC 24 Jun 2018

KCMX 242153Z AUTO 11007KT 10SM CLR 16/02 A3014 RMK AO2 SLP210 T01610017
KCMX 242053Z AUTO 12007G15KT 10SM CLR 16/02 A3014 RMK AO2 SLP210 T01560017 51007
KCMX 241953Z AUTO 09012KT 10SM CLR 16/03 A3014 RMK AO2 SLP208 T01560033
KCMX 241853Z AUTO 10007G17KT 10SM CLR 15/05 A3013 RMK AO2 SLP206 T01500050
KCMX 241753Z AUTO 11010KT 10SM FEW040 BKN090 14/06 A3012 RMK AO2 SLP203 T01390061 10144 20106 51020
KCMX 241653Z AUTO 08007KT 10SM OVC039 13/07 A3010 RMK AO2 SLP197 T01330067
KCMX 241553Z AUTO 09011KT 10SM FEW016 13/07 A3008 RMK AO2 SLP188 T01330072
KCMX 241453Z AUTO 12009KT 10SM FEW080 13/07 A3006 RMK AO2 SLP182 T01330072 51019
KCMX 241353Z AUTO 10006KT 10SM FEW012 12/07 A3004 RMK AO2 SLP177 T01170072
KCMX 241253Z AUTO 07009KT 10SM BKN120 11/07 A3002 RMK AO2 SLP168 T01110072
KCMX 241153Z AUTO 09008KT 10SM OVC100 11/07 A3000 RMK AO2 SLP160 T01060067 10106 20100 51019
KCMX 241053Z AUTO 09005KT 10SM OVC110 10/07 A2998 RMK AO2 SLP155 T01000067
KCMX 240953Z AUTO 10006KT 10SM OVC100 10/07 A2996 RMK AO2 SLP146 T01000067
KCMX 240853Z AUTO 10007KT 10SM OVC095 10/07 A2994 RMK AO2 SLP139 T01000072 53009
KCMX 240753Z AUTO 10006KT 10SM BKN100 10/07 A2993 RMK AO2 SLP133 T01000072
KCMX 240653Z AUTO 10005KT 10SM OVC090 10/08 A2992 RMK AO2 SLP131 T01000078
KCMX 240553Z AUTO 11004KT 10SM CLR 11/08 A2991 RMK AO2 SLP128 T01060078 10183 20106 51016
KCMX 240453Z AUTO 08004KT 10SM CLR 11/08 A2990 RMK AO2 SLP123 T01110078 402500078
KCMX 240353Z AUTO 06003KT 10SM CLR 12/08 A2988 RMK AO2 SLP118 T01170078
KCMX 240253Z AUTO 09004KT 10SM CLR 12/07 A2986 RMK AO2 SLP112 T01170072 53021
KCMX 240153Z AUTO 13003KT 10SM CLR 14/06 A2983 RMK AO2 SLP102 T01390061
KCMX 240053Z AUTO 09004KT 10SM CLR 17/08 A2982 RMK AO2 SLP096 T01670083
KCMX 232353Z AUTO 11005KT 10SM CLR 18/08 A2980 RMK AO2 SLP090 T01830083 10250 20183 53002
KCMX 232253Z AUTO 09006KT 10SM CLR 19/08 A2979 RMK AO2 SLP090 T01940078
KCMX 232153Z AUTO 09005KT 10SM CLR 19/08 A2979 RMK AO2 SLP090 T01940078
KCMX 232053Z AUTO 08008KT 10SM CLR 22/06 A2979 RMK AO2 SLP089 T02170056 53004
KCMX 231953Z AUTO 10009KT 10SM CLR 23/07 A2978 RMK AO2 SLP084 T02330067
KCMX 231853Z AUTO 09007KT 10SM CLR 24/08 A2978 RMK AO2 SLP084 T02390083
KCMX 231753Z AUTO 14007KT 10SM CLR 24/07 A2978 RMK AO2 SLP083 T02440072 10244 20150 50003
KCMX 231553Z AUTO 12003KT 10SM CLR 22/10 A2979 RMK AO2 SLP085 T02220100
KCMX 231453Z AUTO 14005KT 10SM CLR 21/10 A2977 RMK AO2 SLP081 T02060100 56012
KCMX 231353Z AUTO 14003KT 10SM CLR 18/10 A2978 RMK AO2 SLP084 T01780100
KCMX 231253Z AUTO 14004KT 10SM CLR 17/09 A2979 RMK AO2 SLP088 T01670094
KCMX 231153Z AUTO 00000KT 10SM CLR 15/08 A2981 RMK AO2 SLP093 T01500078 10150 20078 53004
KCMX 231053Z AUTO 00000KT 10SM CLR 11/07 A2981 RMK AO2 SLP093 T01060072